Time;durP1;ratioP1;P1;durP2;ratioP2;P2;SDS_P1;SDS_P2;PMS_P1;PMS_P2;Temp;Humidity;BMP_temperature;BMP_pressure;BME280_temperature;BME280_humidity;BME280_pressure;Samples;Min_cycle;Max_cycle;Signal;HPM_P1;HPM_P2
2023/09/27 00:00:25;;;;;;;8.87;5.17;;;19.00;6.10;;;;;;5133323;27;20175;-81
2023/09/27 00:02:52;;;;;;;8.90;4.80;;;19.00;5.20;;;;;;5128622;27;20230;-81
2023/09/27 00:05:20;;;;;;;12.40;7.23;;;18.90;8.20;;;;;;5132787;27;20167;-81
2023/09/27 00:07:46;;;;;;;6.87;5.13;;;18.80;12.60;;;;;;5134421;27;20239;-81
2023/09/27 00:10:12;;;;;;;9.50;4.87;;;18.70;15.10;;;;;;5136068;27;20165;-82
2023/09/27 00:12:39;;;;;;;8.77;5.00;;;18.70;15.90;;;;;;5136238;27;20192;-81
2023/09/27 00:15:07;;;;;;;7.00;5.00;;;18.70;14.80;;;;;;5138257;27;20326;-80
2023/09/27 00:17:33;;;;;;;9.00;5.80;;;18.80;13.70;;;;;;5137653;27;20172;-81
2023/09/27 00:19:59;;;;;;;8.50;5.00;;;18.80;11.70;;;;;;5137937;27;20224;-80
2023/09/27 00:22:25;;;;;;;13.57;5.17;;;18.70;13.90;;;;;;5138198;27;20700;-81
2023/09/27 00:24:51;;;;;;;6.90;4.70;;;18.50;20.40;;;;;;5137263;27;20382;-80
2023/09/27 00:27:17;;;;;;;8.90;4.83;;;18.40;24.30;;;;;;5137866;27;20173;-81
2023/09/27 00:29:43;;;;;;;8.23;5.80;;;18.30;25.40;;;;;;5142454;27;20155;-80
2023/09/27 00:32:08;;;;;;;9.50;4.93;;;18.30;27.10;;;;;;5153848;27;20658;-81
2023/09/27 00:34:37;;;;;;;7.33;4.80;;;18.30;28.90;;;;;;5142168;27;20174;-82
2023/09/27 00:37:03;;;;;;;6.83;4.87;;;18.50;27.70;;;;;;5137404;27;20622;-82
2023/09/27 00:39:28;;;;;;;8.70;5.37;;;18.60;25.60;;;;;;5135445;27;20175;-81
2023/09/27 00:41:54;;;;;;;8.07;5.37;;;18.70;23.70;;;;;;5134428;27;20208;-80
2023/09/27 00:44:21;;;;;;;9.23;5.93;;;18.70;23.00;;;;;;5134549;27;20221;-79
2023/09/27 00:46:51;;;;;;;10.97;5.43;;;18.60;23.50;;;;;;5135069;27;20173;-81
2023/09/27 00:49:18;;;;;;;10.33;5.70;;;18.40;26.40;;;;;;5133772;27;20166;-79
2023/09/27 00:51:44;;;;;;;10.00;5.43;;;18.30;28.80;;;;;;5133980;27;20199;-82
2023/09/27 00:54:11;;;;;;;9.33;4.97;;;18.30;30.70;;;;;;5151821;27;20182;-81
2023/09/27 00:56:37;;;;;;;9.47;5.73;;;18.40;24.60;;;;;;5157579;27;20178;-81
2023/09/27 00:59:04;;;;;;;11.90;5.97;;;18.40;19.90;;;;;;5138335;28;20178;-78
2023/09/27 01:01:31;;;;;;;10.07;5.50;;;18.40;18.90;;;;;;5135131;28;20225;-80
2023/09/27 01:03:58;;;;;;;9.70;5.77;;;18.30;22.50;;;;;;5136525;27;20198;-79
2023/09/27 01:06:24;;;;;;;12.23;6.27;;;18.20;24.70;;;;;;5134584;27;20197;-82
2023/09/27 01:08:51;;;;;;;9.57;5.47;;;18.20;24.90;;;;;;5134422;27;20202;-80
2023/09/27 01:11:17;;;;;;;9.47;5.07;;;18.20;24.50;;;;;;5134933;27;20643;-81
2023/09/27 01:13:43;;;;;;;7.83;5.13;;;18.20;26.30;;;;;;5132760;28;20174;-81
2023/09/27 01:16:09;;;;;;;7.27;5.47;;;18.00;29.10;;;;;;5135762;27;20538;-81
2023/09/27 01:18:34;;;;;;;6.33;4.60;;;18.00;32.20;;;;;;5137445;27;20177;-81
2023/09/27 01:21:01;;;;;;;8.40;5.17;;;17.90;36.00;;;;;;5139331;27;20177;-80
2023/09/27 01:23:28;;;;;;;7.27;4.97;;;18.00;37.10;;;;;;5139381;27;20211;-81
2023/09/27 01:26:01;;;;;;;8.67;5.10;;;18.00;35.50;;;;;;5160786;27;20177;-81
2023/09/27 01:28:29;;;;;;;9.20;5.07;;;18.10;35.20;;;;;;5158945;27;20196;-82
2023/09/27 01:30:55;;;;;;;7.87;5.00;;;18.00;36.50;;;;;;5159188;27;20159;-81
2023/09/27 01:33:21;;;;;;;8.67;5.10;;;18.10;36.00;;;;;;5156551;27;20166;-78
2023/09/27 01:35:48;;;;;;;8.27;4.83;;;18.20;34.70;;;;;;5159842;27;20199;-80
2023/09/27 01:38:13;;;;;;;6.87;5.37;;;18.20;33.30;;;;;;5139040;27;20171;-80
2023/09/27 01:40:42;;;;;;;7.23;5.13;;;18.20;33.10;;;;;;5143181;27;20758;-80
2023/09/27 01:43:08;;;;;;;7.17;5.63;;;18.20;32.10;;;;;;5153136;27;20272;-81
2023/09/27 01:45:37;;;;;;;7.20;5.53;;;18.20;31.40;;;;;;5147066;27;20172;-81
2023/09/27 01:48:06;;;;;;;9.73;5.70;;;18.00;32.50;;;;;;5141307;27;20174;-80
2023/09/27 01:50:33;;;;;;;8.50;5.63;;;18.00;35.30;;;;;;5140259;27;20169;-81
2023/09/27 01:53:00;;;;;;;10.67;5.60;;;18.00;35.80;;;;;;5139108;27;20247;-81
2023/09/27 01:55:26;;;;;;;8.03;5.60;;;17.90;36.50;;;;;;5136473;27;20259;-81
2023/09/27 01:57:53;;;;;;;9.40;5.47;;;17.90;38.90;;;;;;5137230;27;20169;-81
2023/09/27 02:00:20;;;;;;;8.13;5.27;;;18.00;34.40;;;;;;5137318;27;20172;-81
2023/09/27 02:02:57;;;;;;;10.47;5.53;;;18.00;30.50;;;;;;5137239;27;20178;-81
2023/09/27 02:05:24;;;;;;;11.17;5.53;;;18.00;32.10;;;;;;5137015;27;20221;-80
2023/09/27 02:07:49;;;;;;;11.73;5.37;;;17.90;31.40;;;;;;5135690;27;20258;-81
2023/09/27 02:10:15;;;;;;;10.67;5.67;;;18.00;28.10;;;;;;5119574;27;20201;-81
2023/09/27 02:12:41;;;;;;;8.63;5.30;;;18.00;28.10;;;;;;5137348;27;20162;-81
2023/09/27 02:15:11;;;;;;;10.17;5.77;;;17.90;28.80;;;;;;5135565;27;20174;-82
2023/09/27 02:17:39;;;;;;;10.20;5.70;;;17.80;30.00;;;;;;5135192;27;20173;-81
2023/09/27 02:20:12;;;;;;;10.97;5.83;;;17.70;32.00;;;;;;5137376;27;20174;-81
2023/09/27 02:22:42;;;;;;;7.63;5.33;;;17.50;38.00;;;;;;5134760;27;20259;-81
2023/09/27 02:25:11;;;;;;;7.80;5.27;;;17.50;43.10;;;;;;5137353;27;20178;-80
2023/09/27 02:27:37;;;;;;;7.37;5.17;;;17.40;48.10;;;;;;5136660;27;20290;-80
2023/09/27 02:30:06;;;;;;;8.53;5.30;;;17.40;49.70;;;;;;5136066;27;20211;-81
2023/09/27 02:32:32;;;;;;;6.97;5.10;;;17.60;50.30;;;;;;5134756;27;20739;-80
2023/09/27 02:34:58;;;;;;;9.83;4.83;;;17.60;48.80;;;;;;5136373;27;20181;-82
2023/09/27 02:37:24;;;;;;;9.73;5.30;;;17.60;45.80;;;;;;5135932;27;20506;-81
2023/09/27 02:39:50;;;;;;;8.70;5.43;;;17.70;42.90;;;;;;5134663;27;20690;-82
2023/09/27 02:42:15;;;;;;;8.13;4.93;;;17.70;42.30;;;;;;5136069;27;20207;-80
2023/09/27 02:44:41;;;;;;;12.47;5.50;;;17.70;42.40;;;;;;5137605;27;20586;-81
2023/09/27 02:47:07;;;;;;;10.27;5.83;;;17.70;42.90;;;;;;5135776;27;20167;-80
2023/09/27 02:49:36;;;;;;;8.43;5.30;;;17.70;37.80;;;;;;5137142;27;20188;-80
2023/09/27 02:52:03;;;;;;;7.37;5.13;;;17.60;37.20;;;;;;5135750;27;20197;-81
2023/09/27 02:54:29;;;;;;;12.90;6.00;;;17.60;37.80;;;;;;5136515;27;20173;-81
2023/09/27 02:56:54;;;;;;;7.97;5.07;;;17.50;39.60;;;;;;5133836;27;20178;-80
2023/09/27 02:59:21;;;;;;;9.03;5.93;;;17.40;44.30;;;;;;5136888;27;20159;-81
2023/09/27 03:01:47;;;;;;;10.83;6.10;;;17.40;47.00;;;;;;5135676;27;20182;-80
2023/09/27 03:04:15;;;;;;;9.50;6.27;;;17.30;50.00;;;;;;5136276;27;20270;-82
2023/09/27 03:06:41;;;;;;;9.27;6.10;;;17.30;50.20;;;;;;5134416;27;20616;-81
2023/09/27 03:09:11;;;;;;;9.63;6.30;;;17.50;46.40;;;;;;5138185;27;20265;-80
2023/09/27 03:11:38;;;;;;;10.90;5.83;;;17.30;42.20;;;;;;5138332;27;20220;-81
2023/09/27 03:14:04;;;;;;;11.30;5.57;;;17.50;42.70;;;;;;5142943;27;20200;-80
2023/09/27 03:16:31;;;;;;;10.97;5.90;;;17.40;45.40;;;;;;5138883;27;20177;-81
2023/09/27 03:19:00;;;;;;;11.37;5.77;;;17.40;44.80;;;;;;5135595;27;20188;-80
2023/09/27 03:21:29;;;;;;;8.40;6.13;;;17.40;42.80;;;;;;5135180;27;20182;-81
2023/09/27 03:23:55;;;;;;;9.00;5.90;;;17.40;42.70;;;;;;5133882;27;20211;-78
2023/09/27 03:26:22;;;;;;;8.57;5.87;;;17.30;45.30;;;;;;5136648;27;20174;-82
2023/09/27 03:28:52;;;;;;;7.03;5.60;;;17.30;49.90;;;;;;5134431;27;20180;-81
2023/09/27 03:31:19;;;;;;;8.20;6.13;;;17.20;52.70;;;;;;5135313;27;20217;-81
2023/09/27 03:33:46;;;;;;;9.50;6.00;;;17.10;57.40;;;;;;5136597;27;20629;-81
2023/09/27 03:36:12;;;;;;;7.03;5.03;;;17.10;59.60;;;;;;5134356;27;20183;-81
2023/09/27 03:38:38;;;;;;;9.97;5.77;;;17.20;58.80;;;;;;5133338;27;20533;-81
2023/09/27 03:41:11;;;;;;;9.20;5.53;;;17.30;58.60;;;;;;5135929;27;20177;-82
2023/09/27 03:43:37;;;;;;;8.03;5.63;;;17.30;57.30;;;;;;5134089;27;20565;-81
2023/09/27 03:46:03;;;;;;;9.23;5.90;;;17.20;58.20;;;;;;5134610;27;20184;-80
2023/09/27 03:48:30;;;;;;;9.00;6.07;;;17.40;57.40;;;;;;5133963;27;20243;-80
2023/09/27 03:50:56;;;;;;;10.47;5.97;;;17.50;56.30;;;;;;5147953;27;20165;-80
2023/09/27 03:53:23;;;;;;;10.00;5.73;;;17.50;52.90;;;;;;5157394;27;20196;-80
2023/09/27 03:55:50;;;;;;;8.57;5.43;;;17.60;48.10;;;;;;5136948;27;20178;-81
2023/09/27 03:58:17;;;;;;;10.30;5.83;;;17.50;42.60;;;;;;5134284;27;20272;-81
2023/09/27 04:00:42;;;;;;;8.07;5.83;;;17.50;43.00;;;;;;5135676;27;20164;-81
2023/09/27 04:03:08;;;;;;;7.20;5.87;;;17.50;41.70;;;;;;5135744;27;20609;-81
2023/09/27 04:05:34;;;;;;;8.17;5.77;;;17.40;45.70;;;;;;5134301;27;20178;-81
2023/09/27 04:08:00;;;;;;;7.20;5.47;;;17.40;45.90;;;;;;5133802;27;20225;-80
2023/09/27 04:10:28;;;;;;;8.13;5.77;;;17.40;46.70;;;;;;5135678;27;20174;-79
2023/09/27 04:12:54;;;;;;;8.13;5.53;;;17.40;47.30;;;;;;5137388;27;20170;-82
2023/09/27 04:15:20;;;;;;;9.33;5.87;;;17.40;48.70;;;;;;5152110;27;20188;-80
2023/09/27 04:17:46;;;;;;;10.47;6.40;;;17.30;49.90;;;;;;5146546;27;20185;-82
2023/09/27 04:20:16;;;;;;;7.90;5.53;;;17.40;51.30;;;;;;5137640;27;20215;-80
2023/09/27 04:22:50;;;;;;;13.03;6.13;;;17.50;50.10;;;;;;5136087;27;20178;-80
2023/09/27 04:25:19;;;;;;;8.40;5.50;;;17.50;50.20;;;;;;5136754;27;20454;-80
2023/09/27 04:27:47;;;;;;;10.90;5.83;;;17.50;49.00;;;;;;5138116;27;20177;-81
2023/09/27 04:30:19;;;;;;;9.07;6.00;;;17.40;48.40;;;;;;5135382;27;20205;-80
2023/09/27 04:32:47;;;;;;;7.63;6.43;;;17.40;50.30;;;;;;5135478;27;20524;-81
2023/09/27 04:35:13;;;;;;;9.77;6.87;;;17.50;49.40;;;;;;5136493;27;20178;-81
2023/09/27 04:37:40;;;;;;;8.90;6.27;;;17.60;47.80;;;;;;5139102;27;20173;-81
2023/09/27 04:40:14;;;;;;;9.37;5.87;;;17.60;46.00;;;;;;5138939;27;20190;-81
2023/09/27 04:42:41;;;;;;;9.07;6.03;;;17.60;43.10;;;;;;5138468;27;20195;-81
2023/09/27 04:45:08;;;;;;;9.10;5.83;;;17.50;43.80;;;;;;5138198;27;20542;-82
2023/09/27 04:47:34;;;;;;;9.13;5.77;;;17.50;44.80;;;;;;5135715;27;20169;-81
2023/09/27 04:50:00;;;;;;;8.97;5.77;;;17.40;45.80;;;;;;5135913;27;20175;-80
2023/09/27 04:52:26;;;;;;;10.13;5.57;;;17.50;45.70;;;;;;5134356;27;20190;-79
2023/09/27 04:54:58;;;;;;;9.63;5.80;;;17.40;47.40;;;;;;5133332;27;20177;-81
2023/09/27 04:57:25;;;;;;;8.03;5.83;;;17.20;48.60;;;;;;5133629;28;20575;-82
2023/09/27 04:59:53;;;;;;;8.50;6.07;;;17.30;50.20;;;;;;5136133;27;20188;-80
2023/09/27 05:02:20;;;;;;;7.87;5.20;;;17.30;48.50;;;;;;5134909;27;20175;-81
2023/09/27 05:04:47;;;;;;;9.10;6.23;;;17.20;50.00;;;;;;5133472;27;20586;-82
2023/09/27 05:07:22;;;;;;;11.33;6.07;;;17.20;51.30;;;;;;5133349;28;20168;-81
2023/09/27 05:09:48;;;;;;;8.70;5.17;;;17.20;50.60;;;;;;5136078;27;20204;-81
2023/09/27 05:12:15;;;;;;;10.63;5.80;;;17.30;50.20;;;;;;5141518;28;20178;-82
2023/09/27 05:14:41;;;;;;;10.83;5.70;;;17.30;48.90;;;;;;5133790;28;20273;-79
2023/09/27 05:17:08;;;;;;;8.07;5.30;;;17.30;48.30;;;;;;5134620;27;20260;-81
2023/09/27 05:19:34;;;;;;;10.27;5.80;;;17.40;47.20;;;;;;5135130;27;20175;-80
2023/09/27 05:22:00;;;;;;;9.50;5.70;;;17.40;46.60;;;;;;5133620;28;20170;-82
2023/09/27 05:24:25;;;;;;;9.17;6.30;;;17.50;44.90;;;;;;5131945;28;20217;-81
2023/09/27 05:26:51;;;;;;;7.73;5.93;;;17.50;43.20;;;;;;5133407;28;20534;-81
2023/09/27 05:29:17;;;;;;;13.13;5.97;;;17.50;41.70;;;;;;5135560;27;20515;-81
2023/09/27 05:31:46;;;;;;;9.87;6.63;;;17.50;39.50;;;;;;5134276;28;20166;-81
2023/09/27 05:34:12;;;;;;;13.20;6.27;;;17.50;37.90;;;;;;5135103;28;20178;-82
2023/09/27 05:36:39;;;;;;;9.83;6.03;;;17.50;40.10;;;;;;5133851;27;20192;-82
2023/09/27 05:39:08;;;;;;;11.10;6.57;;;17.40;41.70;;;;;;5134280;27;20181;-81
2023/09/27 05:41:33;;;;;;;10.33;6.30;;;17.40;44.00;;;;;;5133097;27;20163;-83
2023/09/27 05:43:59;;;;;;;9.73;6.27;;;17.30;45.10;;;;;;5143064;28;20310;-81
2023/09/27 05:46:28;;;;;;;10.33;6.00;;;17.40;45.40;;;;;;5131991;28;20182;-80
2023/09/27 05:48:54;;;;;;;12.80;7.37;;;17.40;45.20;;;;;;5134274;27;20175;-80
2023/09/27 05:51:20;;;;;;;10.50;6.47;;;17.40;44.60;;;;;;5132035;28;20197;-82
2023/09/27 05:53:48;;;;;;;8.83;6.53;;;17.50;44.80;;;;;;5131287;27;20294;-79
2023/09/27 05:56:13;;;;;;;11.53;7.00;;;17.50;44.00;;;;;;5132312;28;20178;-80
2023/09/27 05:58:39;;;;;;;14.33;6.57;;;17.50;43.40;;;;;;5136141;28;20185;-82
2023/09/27 06:01:07;;;;;;;10.77;6.53;;;17.50;46.00;;;;;;5132622;27;20179;-81
2023/09/27 06:03:35;;;;;;;8.57;6.57;;;17.40;45.80;;;;;;5136631;27;20204;-84
2023/09/27 06:06:03;;;;;;;11.83;6.23;;;17.40;47.00;;;;;;5136961;27;20174;-82
2023/09/27 06:08:29;;;;;;;17.20;7.80;;;17.40;46.00;;;;;;5138129;27;20261;-83
2023/09/27 06:10:55;;;;;;;13.57;6.77;;;17.40;45.30;;;;;;5138706;27;20199;-82
2023/09/27 06:13:22;;;;;;;16.43;6.97;;;17.40;46.70;;;;;;5141057;27;20173;-81
2023/09/27 06:15:49;;;;;;;14.03;7.00;;;17.40;48.20;;;;;;5137465;27;20240;-83
2023/09/27 06:18:15;;;;;;;13.97;7.17;;;17.50;47.30;;;;;;5135577;27;20824;-81
2023/09/27 06:20:41;;;;;;;10.60;6.90;;;17.60;46.00;;;;;;5135742;27;20176;-81
2023/09/27 06:23:09;;;;;;;11.23;7.07;;;17.50;45.40;;;;;;5135722;27;20732;-83
2023/09/27 06:25:35;;;;;;;13.77;7.40;;;17.60;45.60;;;;;;5135065;27;20177;-82
2023/09/27 06:28:01;;;;;;;16.03;6.77;;;17.60;46.80;;;;;;5133506;27;20177;-80
2023/09/27 06:30:27;;;;;;;16.13;6.80;;;17.60;48.40;;;;;;5142117;27;20719;-81
2023/09/27 06:32:53;;;;;;;13.77;6.50;;;17.70;46.10;;;;;;5145388;27;20201;-81
2023/09/27 06:35:19;;;;;;;14.77;7.73;;;17.80;43.70;;;;;;5139107;27;20182;-80
2023/09/27 06:37:48;;;;;;;16.33;8.90;;;17.90;39.60;;;;;;5135510;27;20219;-81
2023/09/27 06:40:17;;;;;;;18.77;8.33;;;18.00;35.40;;;;;;5127678;27;20200;-82
2023/09/27 06:42:44;;;;;;;13.03;8.00;;;18.00;35.60;;;;;;5135398;27;20227;-82
2023/09/27 06:45:10;;;;;;;15.47;7.97;;;18.00;37.00;;;;;;5136891;27;20233;-83
2023/09/27 06:47:38;;;;;;;15.63;8.57;;;17.90;38.10;;;;;;5137485;27;20220;-79
2023/09/27 06:50:04;;;;;;;12.33;7.67;;;18.00;35.50;;;;;;5149698;27;20312;-81
2023/09/27 06:52:30;;;;;;;12.07;7.77;;;17.90;34.30;;;;;;5138028;27;20198;-79
2023/09/27 06:54:57;;;;;;;14.10;7.83;;;18.00;33.60;;;;;;5137091;27;20204;-81
2023/09/27 06:57:23;;;;;;;15.07;7.67;;;18.00;34.30;;;;;;5138060;27;20206;-80
2023/09/27 06:59:49;;;;;;;16.73;8.13;;;18.00;34.90;;;;;;5134479;27;20214;-81
2023/09/27 07:02:16;;;;;;;15.53;8.07;;;18.20;32.00;;;;;;5132409;27;20212;-79
2023/09/27 07:04:43;;;;;;;16.60;8.33;;;18.20;31.30;;;;;;5135672;27;20295;-81
2023/09/27 07:07:09;;;;;;;15.67;7.80;;;18.30;25.50;;;;;;5135380;27;20256;-82
2023/09/27 07:09:35;;;;;;;16.40;8.20;;;18.40;24.70;;;;;;5144757;27;20213;-80
2023/09/27 07:12:01;;;;;;;17.10;8.10;;;18.40;23.00;;;;;;5150672;27;20668;-80
2023/09/27 07:14:28;;;;;;;15.93;7.20;;;18.40;25.40;;;;;;5136236;27;20239;-79
2023/09/27 07:16:54;;;;;;;17.93;7.37;;;18.50;24.80;;;;;;5136364;27;20185;-82
2023/09/27 07:19:23;;;;;;;10.97;7.73;;;18.60;23.50;;;;;;5136717;27;20666;-83
2023/09/27 07:21:49;;;;;;;13.10;7.13;;;18.80;20.60;;;;;;5135830;27;20233;-83
2023/09/27 07:24:15;;;;;;;16.50;6.93;;;18.90;20.90;;;;;;5136716;27;20323;-83
2023/09/27 07:26:42;;;;;;;15.00;7.63;;;18.90;20.60;;;;;;5137219;27;20695;-80
2023/09/27 07:29:09;;;;;;;13.60;7.07;;;19.10;19.00;;;;;;5128980;27;20237;-81
2023/09/27 07:31:35;;;;;;;14.80;6.67;;;19.20;16.20;;;;;;5137249;27;20178;-80
2023/09/27 07:34:01;;;;;;;12.63;6.90;;;19.40;13.70;;;;;;5150619;27;20182;-81
2023/09/27 07:36:27;;;;;;;13.60;7.13;;;19.40;6.40;;;;;;5127651;27;20186;-80
2023/09/27 07:38:57;;;;;;;14.17;7.27;;;19.40;6.60;;;;;;5132294;27;20191;-81
2023/09/27 07:41:31;;;;;;;15.63;7.20;;;19.50;5.00;;;;;;5138039;27;20151;-81
2023/09/27 07:44:00;;;;;;;12.53;6.83;;;19.60;3.00;;;;;;5135679;27;20786;-83
2023/09/27 07:46:29;;;;;;;12.43;7.30;;;19.90;1.00;;;;;;5134915;27;20549;-80
2023/09/27 07:48:55;;;;;;;11.30;7.73;;;20.00;1.00;;;;;;5135975;27;20175;-81
2023/09/27 07:51:23;;;;;;;17.70;7.40;;;20.10;1.00;;;;;;5136349;27;20171;-81
2023/09/27 07:53:48;;;;;;;13.80;7.83;;;20.10;1.00;;;;;;5137304;27;20217;-83
2023/09/27 07:56:19;;;;;;;15.20;7.67;;;20.10;1.00;;;;;;5135632;27;20175;-84
2023/09/27 07:58:51;;;;;;;12.57;7.90;;;20.10;1.00;;;;;;5136013;27;20171;-84
2023/09/27 08:01:20;;;;;;;15.93;8.40;;;20.10;1.00;;;;;;5136531;27;20265;-83
2023/09/27 08:04:00;;;;;;;16.57;7.90;;;20.20;1.00;;;;;;5137491;27;20217;-85
2023/09/27 08:06:26;;;;;;;15.07;8.07;;;20.50;1.00;;;;;;5135925;27;20183;-85
2023/09/27 08:08:52;;;;;;;18.43;7.80;;;20.70;1.00;;;;;;5136439;27;20247;-85
2023/09/27 08:11:18;;;;;;;20.83;7.97;;;20.70;1.00;;;;;;5138406;27;20264;-85
2023/09/27 08:13:44;;;;;;;13.40;7.80;;;21.00;1.00;;;;;;5124860;27;20199;-84
2023/09/27 08:16:10;;;;;;;17.07;8.83;;;21.20;1.00;;;;;;5133857;27;20680;-82
2023/09/27 08:18:37;;;;;;;12.60;7.93;;;21.40;1.00;;;;;;5146775;27;20191;-83
2023/09/27 08:21:03;;;;;;;13.57;7.80;;;21.40;1.00;;;;;;5136220;27;20188;-81
2023/09/27 08:23:29;;;;;;;17.80;7.40;;;21.60;1.00;;;;;;5153927;27;20242;-80
2023/09/27 08:25:58;;;;;;;19.90;8.20;;;21.70;1.00;;;;;;5154722;27;20183;-84
2023/09/27 08:28:23;;;;;;;19.17;7.37;;;21.70;1.00;;;;;;5144187;27;20184;-82
2023/09/27 08:30:49;;;;;;;12.23;7.30;;;21.90;1.00;;;;;;5154873;27;20193;-83
2023/09/27 08:33:15;;;;;;;16.00;7.87;;;22.00;1.00;;;;;;5138593;27;20200;-82
2023/09/27 08:35:41;;;;;;;10.70;6.27;;;22.10;1.00;;;;;;5143562;27;20184;-80
2023/09/27 08:38:08;;;;;;;8.80;5.60;;;22.10;1.00;;;;;;5148598;27;20188;-81
2023/09/27 08:40:34;;;;;;;10.80;6.10;;;22.30;1.00;;;;;;5145955;27;20207;-82
2023/09/27 08:43:00;;;;;;;8.03;5.13;;;22.20;1.00;;;;;;5147297;27;20224;-77
2023/09/27 08:45:35;;;;;;;11.40;5.50;;;22.00;1.00;;;;;;5142607;27;20202;-78
2023/09/27 08:48:01;;;;;;;7.13;4.90;;;21.80;1.00;;;;;;5147032;27;20250;-81
2023/09/27 08:50:27;;;;;;;12.20;5.80;;;21.90;1.00;;;;;;5142338;27;20618;-81
2023/09/27 08:52:53;;;;;;;12.93;5.97;;;22.00;1.00;;;;;;5132067;28;20204;-78
2023/09/27 08:55:20;;;;;;;9.70;5.47;;;22.30;1.00;;;;;;5147987;27;20197;-77
2023/09/27 08:57:51;;;;;;;9.97;5.33;;;22.30;1.00;;;;;;5149280;27;20178;-77
2023/09/27 09:00:23;;;;;;;9.07;4.83;;;22.20;1.00;;;;;;5133900;27;20599;-76
2023/09/27 09:02:56;;;;;;;8.53;4.70;;;22.20;1.00;;;;;;5134205;27;20562;-77
2023/09/27 09:05:22;;;;;;;9.53;5.17;;;22.10;1.00;;;;;;5133182;27;20193;-77
2023/09/27 09:07:49;;;;;;;12.43;4.90;;;22.00;1.00;;;;;;5143800;27;20188;-82
2023/09/27 09:10:16;;;;;;;7.67;4.67;;;21.90;1.00;;;;;;5148057;28;20200;-84
2023/09/27 09:12:48;;;;;;;9.53;4.53;;;21.90;1.00;;;;;;5142416;28;20174;-84
2023/09/27 09:15:28;;;;;;;8.97;4.87;;;21.70;1.00;;;;;;5123431;27;20174;-84
2023/09/27 09:17:57;;;;;;;7.70;4.60;;;21.70;1.00;;;;;;5114447;28;20552;-83
2023/09/27 09:20:49;;;;;;;7.70;4.23;;;21.60;1.00;;;;;;5113912;28;20184;-83
2023/09/27 09:23:34;;;;;;;8.43;4.30;;;21.70;1.00;;;;;;5115792;28;20201;-84
2023/09/27 09:26:01;;;;;;;8.80;4.53;;;22.00;1.00;;;;;;5114543;28;20246;-81
2023/09/27 09:28:27;;;;;;;13.17;4.67;;;22.20;1.00;;;;;;5114068;28;20178;-82
2023/09/27 09:30:56;;;;;;;6.77;3.97;;;22.50;1.00;;;;;;5114242;28;20186;-82
2023/09/27 09:33:24;;;;;;;7.33;4.10;;;22.80;1.00;;;;;;5116861;28;20230;-84
2023/09/27 09:35:52;;;;;;;7.13;3.97;;;23.00;1.00;;;;;;5115723;28;20171;-83
2023/09/27 09:38:29;;;;;;;6.30;4.00;;;23.00;1.00;;;;;;5118272;28;20184;-83
2023/09/27 09:41:00;;;;;;;7.77;4.00;;;23.20;1.00;;;;;;5119815;28;20154;-83
2023/09/27 09:43:36;;;;;;;7.50;4.03;;;23.40;1.00;;;;;;5119143;28;20884;-85
2023/09/27 09:46:08;;;;;;;6.13;3.60;;;23.60;1.00;;;;;;5119766;28;20162;-85
2023/09/27 09:48:35;;;;;;;8.07;3.50;;;23.30;1.00;;;;;;5120508;28;20155;-84
2023/09/27 09:51:06;;;;;;;6.23;4.00;;;23.10;1.00;;;;;;5119876;28;20529;-84
2023/09/27 09:53:40;;;;;;;7.70;3.60;;;23.20;1.00;;;;;;5120076;27;20214;-83
2023/09/27 09:56:10;;;;;;;7.50;3.20;;;23.40;1.00;;;;;;5121582;28;20194;-82
2023/09/27 09:59:03;;;;;;;6.70;3.40;;;23.60;1.00;;;;;;5122638;28;20362;-81
2023/09/27 10:01:37;;;;;;;7.33;3.40;;;23.80;1.00;;;;;;5118238;28;20640;-82
2023/09/27 10:04:05;;;;;;;7.10;3.10;;;23.90;1.00;;;;;;5121217;28;20202;-83
2023/09/27 10:06:33;;;;;;;7.33;2.70;;;23.90;1.00;;;;;;5131324;28;20190;-81
2023/09/27 10:09:01;;;;;;;6.40;3.03;;;24.00;1.00;;;;;;5126247;28;20174;-82
2023/09/27 10:11:29;;;;;;;4.57;2.80;;;24.30;99.90;;;;;;5121899;28;20166;-81
2023/09/27 10:13:56;;;;;;;7.67;3.10;;;24.50;99.90;;;;;;5121162;28;20171;-82
2023/09/27 10:16:24;;;;;;;4.63;2.53;;;24.60;99.90;;;;;;5120768;28;20170;-81
2023/09/27 10:18:53;;;;;;;5.47;2.63;;;24.60;99.90;;;;;;5119624;28;20167;-81
2023/09/27 10:21:19;;;;;;;3.73;2.60;;;24.60;99.90;;;;;;5121795;28;20854;-81
2023/09/27 10:23:52;;;;;;;7.67;2.80;;;24.60;99.90;;;;;;5120767;28;20199;-82
2023/09/27 10:26:36;;;;;;;7.23;2.80;;;24.40;99.90;;;;;;5119876;28;20206;-82
2023/09/27 10:29:13;;;;;;;6.30;2.80;;;24.50;99.90;;;;;;5138467;28;20151;-81
2023/09/27 10:31:57;;;;;;;7.73;2.70;;;24.50;99.90;;;;;;5126300;28;20261;-80
2023/09/27 10:34:26;;;;;;;6.43;2.83;;;24.10;99.90;;;;;;5117888;28;20619;-83
2023/09/27 10:36:53;;;;;;;5.23;2.80;;;24.10;99.90;;;;;;5117407;28;20626;-81
2023/09/27 10:39:20;;;;;;;7.03;3.17;;;24.20;99.90;;;;;;5116400;28;20228;-84
2023/09/27 10:41:49;;;;;;;6.47;3.10;;;24.30;99.90;;;;;;5117640;28;20539;-81
2023/09/27 10:44:33;;;;;;;7.70;2.87;;;24.50;99.90;;;;;;5114962;28;20218;-83
2023/09/27 10:47:03;;;;;;;5.20;2.60;;;24.60;99.90;;;;;;5115542;28;20181;-81
2023/09/27 10:49:37;;;;;;;6.53;2.90;;;24.80;99.90;;;;;;5115612;28;20159;-81
2023/09/27 10:52:03;;;;;;;8.30;3.13;;;24.90;99.90;;;;;;5128275;28;20191;-81
2023/09/27 10:54:29;;;;;;;6.93;3.00;;;24.80;99.90;;;;;;5135588;28;20163;-82
2023/09/27 10:56:56;;;;;;;8.27;3.40;;;25.00;99.90;;;;;;5133678;28;20177;-81
2023/09/27 10:59:29;;;;;;;4.57;3.03;;;25.10;99.90;;;;;;5128185;28;20159;-82
2023/09/27 11:01:56;;;;;;;5.10;2.90;;;25.10;99.90;;;;;;5127673;27;20273;-81
2023/09/27 11:04:24;;;;;;;5.80;2.90;;;25.30;99.90;;;;;;5142261;27;20201;-81
2023/09/27 11:06:50;;;;;;;4.40;3.10;;;25.30;99.90;;;;;;5134532;27;20162;-80
2023/09/27 11:09:19;;;;;;;8.93;3.27;;;25.40;99.90;;;;;;5136360;27;20171;-80
2023/09/27 11:11:48;;;;;;;5.37;2.80;;;25.50;99.90;;;;;;5134035;27;20171;-79
2023/09/27 11:14:34;;;;;;;5.53;2.67;;;25.60;96.80;;;;;;5114614;28;20193;-81
2023/09/27 11:17:22;;;;;;;4.83;3.47;;;25.80;99.90;;;;;;5115157;27;20186;-82
2023/09/27 11:19:48;;;;;;;6.87;3.73;;;25.80;99.90;;;;;;5115262;27;20174;-81
2023/09/27 11:22:27;;;;;;;5.13;3.20;;;25.90;99.90;;;;;;5122277;27;20245;-82
2023/09/27 11:24:53;;;;;;;4.88;3.30;;;26.00;99.90;;;;;;5133869;27;20251;-82
2023/09/27 11:27:20;;;;;;;6.90;2.73;;;26.00;99.90;;;;;;5134510;27;20165;-81
2023/09/27 11:29:54;;;;;;;5.00;2.70;;;26.10;26.50;;;;;;5135219;27;20313;-82
2023/09/27 11:32:21;;;;;;;4.72;2.58;;;26.00;99.90;;;;;;5127517;27;20653;-82
2023/09/27 11:34:54;;;;;;;5.17;2.97;;;25.70;99.90;;;;;;5129874;27;20505;-81
2023/09/27 11:37:21;;;;;;;8.40;5.00;;;25.90;1.00;;;;;;5127167;27;20177;-81
2023/09/27 11:39:50;;;;;;;7.27;4.70;;;25.90;1.00;;;;;;5114077;28;20182;-83
2023/09/27 11:42:21;;;;;;;5.00;3.03;;;25.90;1.00;;;;;;5115927;28;20163;-84
2023/09/27 11:45:00;;;;;;;8.37;3.50;;;26.10;1.00;;;;;;5118041;28;20216;-83
2023/09/27 11:47:26;;;;;;;5.43;2.83;;;26.20;42.20;;;;;;5123000;27;20166;-81
2023/09/27 11:49:54;;;;;;;4.50;3.17;;;26.40;1.00;;;;;;5136029;27;20184;-84
2023/09/27 11:52:20;;;;;;;6.75;3.10;;;26.40;1.00;;;;;;5136455;27;20186;-82
2023/09/27 11:54:45;;;;;;;6.23;2.90;;;26.30;1.00;;;;;;5135158;27;20180;-83
2023/09/27 11:57:11;;;;;;;8.35;3.15;;;26.30;1.00;;;;;;5134509;27;20269;-82
2023/09/27 11:59:40;;;;;;;5.82;3.03;;;26.30;1.00;;;;;;5132734;27;20209;-82
2023/09/27 12:02:07;;;;;;;5.90;4.30;;;26.50;99.90;;;;;;5129429;27;20182;-83
2023/09/27 12:04:33;;;;;;;5.28;3.22;;;26.70;1.00;;;;;;5114580;28;20195;-82
2023/09/27 12:06:59;;;;;;;10.32;2.97;;;26.70;99.90;;;;;;5115155;27;20186;-82
2023/09/27 12:09:25;;;;;;;7.57;3.40;;;26.90;1.00;;;;;;5114950;28;20834;-84
2023/09/27 12:11:52;;;;;;;6.00;3.13;;;26.90;1.00;;;;;;5116168;28;20173;-83
2023/09/27 12:14:17;;;;;;;5.22;3.15;;;26.90;99.90;;;;;;5099324;28;20171;-83
2023/09/27 12:16:43;;;;;;;5.47;3.00;;;27.00;47.20;;;;;;5115719;28;20177;-83
2023/09/27 12:19:09;;;;;;;6.90;3.20;;;26.90;19.70;;;;;;5115117;28;20691;-83
2023/09/27 12:21:38;;;;;;;7.05;3.08;;;26.70;1.00;;;;;;5114613;28;20188;-82
2023/09/27 12:24:05;;;;;;;7.03;2.83;;;26.90;1.00;;;;;;5134233;27;20210;-81
2023/09/27 12:26:31;;;;;;;5.90;2.90;;;26.90;99.90;;;;;;5139077;27;20630;-82
2023/09/27 12:28:58;;;;;;;6.43;3.30;;;27.00;33.10;;;;;;5140533;27;20185;-82
2023/09/27 12:31:24;;;;;;;5.88;2.97;;;26.70;99.90;;;;;;5140356;27;20392;-81
2023/09/27 12:33:50;;;;;;;4.90;2.78;;;26.60;99.90;;;;;;5139958;27;20166;-80
2023/09/27 12:36:15;;;;;;;7.15;3.10;;;26.60;99.90;;;;;;5138165;27;20232;-81
2023/09/27 12:38:42;;;;;;;5.60;2.90;;;26.40;1.00;;;;;;5132820;27;20181;-83
2023/09/27 12:41:08;;;;;;;4.38;3.00;;;26.40;99.90;;;;;;5134608;27;20166;-82
2023/09/27 12:43:34;;;;;;;5.22;2.72;;;26.30;99.90;;;;;;5134590;27;20209;-81
2023/09/27 12:46:05;;;;;;;5.57;3.28;;;26.20;99.90;;;;;;5133147;27;20174;-82
2023/09/27 12:48:30;;;;;;;7.93;3.13;;;26.50;1.00;;;;;;5135654;27;20165;-82